Time;durP1;ratioP1;P1;durP2;ratioP2;P2;SDS_P1;SDS_P2;PMS_P1;PMS_P2;Temp;Humidity;BMP_temperature;BMP_pressure;BME280_temperature;BME280_humidity;BME280_pressure;Samples;Min_cycle;Max_cycle;Signal;HPM_P1;HPM_P2
2023/01/28 00:00:48;;;;;;;14.02;7.50;;;4.60;99.90;;;;;;5115082;28;20396;-63
2023/01/28 00:03:14;;;;;;;10.50;7.22;;;4.60;99.90;;;;;;5115438;28;20031;-63
2023/01/28 00:05:40;;;;;;;10.73;6.97;;;4.60;99.90;;;;;;5115040;28;20028;-63
2023/01/28 00:08:06;;;;;;;10.52;5.85;;;4.60;99.90;;;;;;5115011;28;20043;-64
2023/01/28 00:10:32;;;;;;;10.63;6.20;;;4.60;99.90;;;;;;5115031;28;20043;-63
2023/01/28 00:12:59;;;;;;;9.27;6.53;;;4.50;99.90;;;;;;5114795;28;20054;-63
2023/01/28 00:15:25;;;;;;;14.55;7.82;;;4.50;99.90;;;;;;5114042;28;20025;-63
2023/01/28 00:17:51;;;;;;;10.10;6.75;;;4.50;99.90;;;;;;5114947;28;20053;-63
2023/01/28 00:20:17;;;;;;;10.77;5.80;;;4.40;99.90;;;;;;5114930;28;20444;-63
2023/01/28 00:22:48;;;;;;;8.43;5.38;;;4.40;99.90;;;;;;5114742;28;20071;-63
2023/01/28 00:25:14;;;;;;;10.82;6.18;;;4.40;99.90;;;;;;5115256;28;20545;-63
2023/01/28 00:27:39;;;;;;;11.68;8.00;;;4.40;99.90;;;;;;5114644;28;20032;-63
2023/01/28 00:30:06;;;;;;;10.02;6.43;;;4.40;99.90;;;;;;5114286;28;20019;-64
2023/01/28 00:32:31;;;;;;;9.25;5.72;;;4.50;99.90;;;;;;5114523;28;20487;-63
2023/01/28 00:34:57;;;;;;;7.70;5.53;;;4.50;99.90;;;;;;5114489;28;20016;-64
2023/01/28 00:37:23;;;;;;;9.82;6.68;;;4.40;99.90;;;;;;5114556;28;20082;-63
2023/01/28 00:39:48;;;;;;;9.95;5.85;;;4.40;99.90;;;;;;5114485;28;20132;-63
2023/01/28 00:42:15;;;;;;;9.73;5.60;;;4.40;99.90;;;;;;5114375;28;20035;-63
2023/01/28 00:44:41;;;;;;;10.25;5.75;;;4.40;99.90;;;;;;5113901;28;20464;-63
2023/01/28 00:47:06;;;;;;;9.35;5.57;;;4.30;99.90;;;;;;5114136;28;20072;-63
2023/01/28 00:49:32;;;;;;;7.72;6.00;;;4.40;99.90;;;;;;5114239;28;20069;-63
2023/01/28 00:51:58;;;;;;;8.68;5.35;;;4.40;99.90;;;;;;5114162;28;20032;-63
2023/01/28 00:54:24;;;;;;;7.97;5.78;;;4.30;99.90;;;;;;5114500;28;20026;-63
2023/01/28 00:56:52;;;;;;;8.63;5.68;;;4.40;99.90;;;;;;5114054;28;20587;-63
2023/01/28 00:59:18;;;;;;;11.43;5.60;;;4.40;99.90;;;;;;5113778;28;20122;-64
2023/01/28 01:01:44;;;;;;;9.23;6.20;;;4.40;99.90;;;;;;5114602;28;20085;-63
2023/01/28 01:04:10;;;;;;;11.73;6.10;;;4.40;99.90;;;;;;5113855;28;20430;-63
2023/01/28 01:06:38;;;;;;;9.55;6.07;;;4.40;99.90;;;;;;5113809;28;20031;-63
2023/01/28 01:09:06;;;;;;;8.15;5.85;;;4.30;99.90;;;;;;5113805;28;20039;-63
2023/01/28 01:11:32;;;;;;;6.38;5.50;;;4.40;99.90;;;;;;5114351;28;20046;-63
2023/01/28 01:13:59;;;;;;;7.22;5.70;;;4.40;99.90;;;;;;5113360;28;20024;-63
2023/01/28 01:16:28;;;;;;;9.90;6.20;;;4.40;99.90;;;;;;5113939;28;20483;-63
2023/01/28 01:18:55;;;;;;;8.30;5.35;;;4.40;99.90;;;;;;5113574;28;20024;-64
2023/01/28 01:21:24;;;;;;;10.13;6.05;;;4.40;99.90;;;;;;5113621;28;20073;-63
2023/01/28 01:23:50;;;;;;;8.73;5.78;;;4.30;99.90;;;;;;5113806;28;20099;-64
2023/01/28 01:26:16;;;;;;;8.77;5.88;;;4.40;99.90;;;;;;5113632;28;20383;-63
2023/01/28 01:28:42;;;;;;;7.43;5.53;;;4.50;99.90;;;;;;5113575;28;20024;-63
2023/01/28 01:31:16;;;;;;;8.23;5.60;;;4.40;99.90;;;;;;5113895;28;20032;-64
2023/01/28 01:33:43;;;;;;;9.15;6.28;;;4.40;99.90;;;;;;5113768;28;20023;-63
2023/01/28 01:36:11;;;;;;;7.40;5.40;;;4.40;99.90;;;;;;5113642;28;20030;-63
2023/01/28 01:38:37;;;;;;;5.80;4.82;;;4.40;99.90;;;;;;5113412;28;20452;-63
2023/01/28 01:41:04;;;;;;;7.63;5.57;;;4.30;99.90;;;;;;5113181;28;20030;-63
2023/01/28 01:43:54;;;;;;;6.95;5.95;;;4.40;99.90;;;;;;5113189;28;20136;-63
2023/01/28 01:46:32;;;;;;;8.20;5.40;;;4.40;99.90;;;;;;5113216;28;20024;-64
2023/01/28 01:49:27;;;;;;;10.13;5.35;;;4.30;99.90;;;;;;5113026;28;20020;-63
2023/01/28 01:52:16;;;;;;;8.77;5.60;;;4.20;99.90;;;;;;5112729;28;20036;-63
2023/01/28 01:54:47;;;;;;;7.70;5.60;;;4.20;99.90;;;;;;5113004;28;20036;-63
2023/01/28 01:57:20;;;;;;;6.63;5.60;;;4.20;99.90;;;;;;5113180;28;20380;-64
2023/01/28 01:59:46;;;;;;;7.43;5.93;;;4.30;99.90;;;;;;5113419;28;20073;-63
2023/01/28 02:02:12;;;;;;;9.75;6.05;;;4.20;99.90;;;;;;5112916;28;20531;-63
2023/01/28 02:04:40;;;;;;;7.10;5.50;;;4.20;99.90;;;;;;5113046;28;20400;-63
2023/01/28 02:07:09;;;;;;;7.72;5.30;;;4.20;99.90;;;;;;5112735;28;20027;-63
2023/01/28 02:09:37;;;;;;;7.45;5.97;;;4.20;99.90;;;;;;5112691;28;20471;-63
2023/01/28 02:12:25;;;;;;;8.25;6.47;;;4.20;99.90;;;;;;5112616;28;20031;-63
2023/01/28 02:14:58;;;;;;;7.68;5.97;;;4.20;99.90;;;;;;5112804;28;20548;-63
2023/01/28 02:17:25;;;;;;;;;;;4.20;99.90;;;;;;5113010;28;20484;-63
2023/01/28 02:20:01;;;;;;;7.78;6.32;;;4.20;99.90;;;;;;5113207;28;19903;-63
2023/01/28 02:22:38;;;;;;;7.95;6.45;;;4.10;99.90;;;;;;5112692;28;20036;-64
2023/01/28 02:25:16;;;;;;;9.35;6.63;;;4.10;99.90;;;;;;5112460;28;20034;-63
2023/01/28 02:28:13;;;;;;;8.38;6.53;;;4.20;99.90;;;;;;5112938;28;20023;-63
2023/01/28 02:30:47;;;;;;;7.55;6.07;;;4.10;99.90;;;;;;5112757;28;20077;-63
2023/01/28 02:33:24;;;;;;;9.43;7.13;;;4.10;99.90;;;;;;5112619;28;20035;-63
2023/01/28 02:35:53;;;;;;;7.40;6.53;;;4.10;99.90;;;;;;5112861;28;20451;-63
2023/01/28 02:38:35;;;;;;;9.95;6.95;;;4.10;99.90;;;;;;5111973;28;20015;-63
2023/01/28 02:41:05;;;;;;;10.23;7.07;;;4.00;99.90;;;;;;5112187;28;20024;-63
2023/01/28 02:43:44;;;;;;;9.20;7.28;;;4.10;99.90;;;;;;5094104;28;20407;-64
2023/01/28 02:49:29;;;;;;;9.95;7.22;;;4.10;99.90;;;;;;5112360;28;20047;-63
2023/01/28 02:52:10;;;;;;;8.27;6.93;;;4.10;99.90;;;;;;5112541;28;20024;-63
2023/01/28 02:54:36;;;;;;;10.38;7.32;;;4.10;99.90;;;;;;5112037;28;20118;-63
2023/01/28 02:57:23;;;;;;;9.45;6.78;;;4.10;99.90;;;;;;5112494;28;20027;-63
2023/01/28 03:00:02;;;;;;;8.70;6.50;;;4.10;99.90;;;;;;5112221;28;20522;-63
2023/01/28 03:03:00;;;;;;;10.82;7.70;;;4.10;99.90;;;;;;5112185;28;20032;-63
2023/01/28 03:05:31;;;;;;;9.27;6.20;;;4.10;99.90;;;;;;5029827;28;20029;-63
2023/01/28 03:07:57;;;;;;;10.48;6.90;;;4.00;99.90;;;;;;5029044;28;20506;-63
2023/01/28 03:10:25;;;;;;;9.15;7.05;;;4.00;99.90;;;;;;5029075;28;20046;-63
2023/01/28 03:38:41;;;;;;;8.95;6.40;;;4.00;99.90;;;;;;5029279;28;20064;-63
2023/01/28 03:41:10;;;;;;;8.65;6.57;;;4.00;99.90;;;;;;5032059;28;20030;-63
2023/01/28 03:43:35;;;;;;;7.90;6.57;;;4.00;99.90;;;;;;5111602;28;20074;-63
2023/01/28 03:46:05;;;;;;;8.80;6.40;;;4.00;99.90;;;;;;5111994;28;20044;-63
2023/01/28 03:48:31;;;;;;;7.82;6.30;;;4.00;99.90;;;;;;5112250;28;20046;-63
2023/01/28 03:51:00;;;;;;;9.43;6.60;;;4.00;99.90;;;;;;5114675;28;20078;-63
2023/01/28 03:53:27;;;;;;;8.57;6.30;;;4.00;99.90;;;;;;5115058;28;20027;-63
2023/01/28 03:55:53;;;;;;;7.03;6.32;;;4.00;99.90;;;;;;5115316;28;20047;-64
2023/01/28 03:58:20;;;;;;;7.38;6.10;;;3.90;99.90;;;;;;5115569;28;20033;-63
2023/01/28 04:00:46;;;;;;;7.72;5.82;;;3.90;99.90;;;;;;5115394;28;20020;-63
2023/01/28 04:03:17;;;;;;;9.38;6.05;;;3.90;99.90;;;;;;5115132;28;20496;-63
2023/01/28 04:06:03;;;;;;;8.05;6.22;;;3.90;99.90;;;;;;5114894;28;20040;-62
2023/01/28 04:08:29;;;;;;;7.28;6.38;;;3.90;99.90;;;;;;5114757;28;20039;-63
2023/01/28 04:10:55;;;;;;;8.43;5.90;;;3.90;99.90;;;;;;5114829;28;20048;-63
2023/01/28 04:13:21;;;;;;;7.25;5.75;;;3.90;99.90;;;;;;5115312;28;20051;-63
2023/01/28 04:15:47;;;;;;;7.93;5.65;;;3.90;99.90;;;;;;5115069;28;20430;-63
2023/01/28 04:18:13;;;;;;;7.80;6.10;;;3.90;99.90;;;;;;5114945;28;20028;-63
2023/01/28 04:20:39;;;;;;;7.30;6.20;;;3.90;99.90;;;;;;5114468;28;20031;-63
2023/01/28 04:23:09;;;;;;;8.05;6.13;;;3.90;99.90;;;;;;5115231;28;20119;-63
2023/01/28 04:25:35;;;;;;;7.10;5.72;;;3.90;99.90;;;;;;5114815;28;20031;-63
2023/01/28 04:28:00;;;;;;;9.15;8.07;;;3.90;99.90;;;;;;5114594;28;20024;-63
2023/01/28 04:30:27;;;;;;;6.88;6.18;;;3.80;99.90;;;;;;5114945;28;20076;-63
2023/01/28 04:32:53;;;;;;;13.38;12.07;;;3.90;99.90;;;;;;5114472;28;20028;-63
2023/01/28 04:35:19;;;;;;;10.75;9.75;;;3.80;99.90;;;;;;5114671;28;20030;-63
2023/01/28 04:37:45;;;;;;;10.68;9.57;;;3.80;99.90;;;;;;5114753;28;20488;-63
2023/01/28 04:40:12;;;;;;;7.93;6.47;;;3.80;99.90;;;;;;5114600;28;20381;-63
2023/01/28 04:42:38;;;;;;;6.60;6.00;;;3.80;99.90;;;;;;5114104;28;20038;-63
2023/01/28 04:45:04;;;;;;;6.68;5.43;;;3.80;99.90;;;;;;5114593;28;20553;-63
2023/01/28 04:47:30;;;;;;;6.60;5.45;;;3.80;99.90;;;;;;5100955;28;20039;-63
2023/01/28 04:49:56;;;;;;;6.50;5.30;;;3.80;99.90;;;;;;5094130;28;20028;-64
2023/01/28 04:52:22;;;;;;;7.85;5.70;;;3.80;99.90;;;;;;5094029;28;20101;-64
2023/01/28 04:54:47;;;;;;;6.13;5.53;;;3.80;99.90;;;;;;5093503;28;20031;-63
2023/01/28 04:57:14;;;;;;;6.68;5.63;;;3.80;99.90;;;;;;5093929;28;20081;-63
2023/01/28 04:59:40;;;;;;;6.63;5.30;;;3.80;99.90;;;;;;5093843;28;20089;-63
2023/01/28 05:02:06;;;;;;;9.05;5.55;;;3.80;99.90;;;;;;5093213;28;20219;-63
2023/01/28 05:04:31;;;;;;;7.05;5.68;;;3.80;99.90;;;;;;5093265;28;20416;-63
2023/01/28 05:06:57;;;;;;;6.45;5.70;;;3.80;99.90;;;;;;5093360;28;20032;-63
2023/01/28 05:09:23;;;;;;;8.20;5.50;;;3.80;99.90;;;;;;5093408;28;20036;-63
2023/01/28 05:11:49;;;;;;;7.30;5.93;;;3.80;99.90;;;;;;5093557;28;20032;-63
2023/01/28 05:14:14;;;;;;;6.40;5.80;;;3.80;99.90;;;;;;5093421;28;20385;-63
2023/01/28 05:16:40;;;;;;;6.28;5.35;;;3.90;99.90;;;;;;5093867;28;20027;-63
2023/01/28 05:19:06;;;;;;;6.63;5.50;;;3.80;99.90;;;;;;5093102;28;20036;-63
2023/01/28 05:21:31;;;;;;;6.88;5.53;;;3.80;99.90;;;;;;5075109;28;20119;-64
2023/01/28 05:23:57;;;;;;;7.57;5.68;;;3.80;99.90;;;;;;5093286;28;20492;-64
2023/01/28 05:26:23;;;;;;;6.70;5.80;;;3.80;99.90;;;;;;5093219;28;20020;-63
2023/01/28 05:28:50;;;;;;;6.28;5.47;;;3.80;99.90;;;;;;5093211;28;20547;-63
2023/01/28 05:31:16;;;;;;;6.40;5.28;;;3.80;99.90;;;;;;5093535;28;20392;-63
2023/01/28 05:33:42;;;;;;;6.55;5.90;;;3.80;99.90;;;;;;5092794;28;20061;-63
2023/01/28 05:36:07;;;;;;;6.15;5.40;;;3.90;99.90;;;;;;5093100;28;20028;-63
2023/01/28 05:38:33;;;;;;;7.75;5.95;;;3.90;99.90;;;;;;5093060;28;20031;-64
2023/01/28 05:40:59;;;;;;;7.68;6.95;;;3.80;99.90;;;;;;5093218;28;20024;-64
2023/01/28 05:43:24;;;;;;;7.63;5.85;;;3.90;99.90;;;;;;5092983;28;20086;-64
2023/01/28 05:45:50;;;;;;;5.95;5.15;;;3.70;99.90;;;;;;5092961;28;20016;-63
2023/01/28 05:48:16;;;;;;;6.43;5.35;;;3.80;99.90;;;;;;5092439;28;20102;-63
2023/01/28 05:50:41;;;;;;;8.07;5.72;;;3.70;99.90;;;;;;5092768;28;20062;-64
2023/01/28 05:53:08;;;;;;;6.80;5.40;;;3.70;99.90;;;;;;5092658;28;20067;-64
2023/01/28 05:55:34;;;;;;;7.13;5.80;;;3.70;99.90;;;;;;5092639;28;20031;-63
2023/01/28 05:58:00;;;;;;;7.07;5.85;;;3.70;99.90;;;;;;5092601;28;20024;-64
2023/01/28 06:00:26;;;;;;;6.15;5.55;;;3.70;99.90;;;;;;5092783;28;20019;-63
2023/01/28 06:02:52;;;;;;;8.18;5.82;;;3.70;99.90;;;;;;5092174;28;20554;-63
2023/01/28 06:05:18;;;;;;;5.93;5.32;;;3.70;99.90;;;;;;5092934;28;20103;-63
2023/01/28 06:07:45;;;;;;;5.60;5.00;;;3.80;99.90;;;;;;5092449;28;20171;-64
2023/01/28 06:10:11;;;;;;;7.10;5.20;;;3.70;99.90;;;;;;5101956;28;20035;-64
2023/01/28 06:12:36;;;;;;;6.57;5.53;;;3.70;99.90;;;;;;5112197;28;20054;-64
2023/01/28 06:15:02;;;;;;;6.10;5.22;;;3.70;99.90;;;;;;5112664;28;20479;-63
2023/01/28 06:17:28;;;;;;;5.75;5.22;;;3.70;99.90;;;;;;5094442;28;20028;-63
2023/01/28 06:19:54;;;;;;;7.45;6.22;;;3.70;99.90;;;;;;5112752;28;20020;-63
2023/01/28 06:22:19;;;;;;;5.97;5.28;;;3.70;99.90;;;;;;5112410;28;20054;-63
2023/01/28 06:24:45;;;;;;;6.13;5.53;;;3.70;99.90;;;;;;5113085;28;20023;-63
2023/01/28 06:27:11;;;;;;;5.78;4.90;;;3.70;99.90;;;;;;5112741;28;20023;-63
2023/01/28 06:29:36;;;;;;;6.28;5.63;;;3.70;99.90;;;;;;5112564;28;20019;-63
2023/01/28 06:32:02;;;;;;;6.22;5.63;;;3.80;99.90;;;;;;5112244;28;20132;-63
2023/01/28 06:34:28;;;;;;;5.78;5.15;;;3.70;99.90;;;;;;5112492;28;20038;-63
2023/01/28 06:36:54;;;;;;;6.20;5.60;;;3.70;99.90;;;;;;5112289;28;20059;-63
2023/01/28 06:39:21;;;;;;;6.28;5.68;;;3.70;99.90;;;;;;5094260;28;20365;-63
2023/01/28 06:41:48;;;;;;;8.73;6.13;;;3.70;99.90;;;;;;5112380;28;20090;-63
2023/01/28 06:44:13;;;;;;;6.82;6.13;;;3.70;99.90;;;;;;5112445;28;20028;-63
2023/01/28 06:46:39;;;;;;;6.45;5.85;;;3.60;99.90;;;;;;5106335;28;20024;-63
2023/01/28 06:49:05;;;;;;;7.65;6.40;;;3.70;99.90;;;;;;5092225;28;20036;-63
2023/01/28 06:51:31;;;;;;;7.15;5.95;;;3.70;99.90;;;;;;5091917;28;20492;-63
2023/01/28 06:53:56;;;;;;;6.43;5.60;;;3.70;99.90;;;;;;5091881;28;20032;-63
2023/01/28 06:56:22;;;;;;;10.07;9.18;;;3.60;99.90;;;;;;5092017;28;20021;-63
2023/01/28 06:58:48;;;;;;;6.65;5.97;;;3.60;99.90;;;;;;5091882;28;20516;-63
2023/01/28 07:01:14;;;;;;;6.40;5.72;;;3.70;99.90;;;;;;5091652;28;20024;-63
2023/01/28 07:03:39;;;;;;;7.10;6.40;;;3.60;99.90;;;;;;5092270;28;20114;-63
2023/01/28 07:06:05;;;;;;;8.48;6.63;;;3.60;99.90;;;;;;5091760;28;20093;-63
2023/01/28 07:08:31;;;;;;;6.85;6.15;;;3.60;99.90;;;;;;5091719;28;20415;-63
2023/01/28 07:10:58;;;;;;;6.97;6.28;;;3.70;99.90;;;;;;5107853;28;20436;-63
2023/01/28 07:13:23;;;;;;;6.68;5.97;;;3.60;99.90;;;;;;5112532;28;20024;-63
2023/01/28 07:15:49;;;;;;;8.07;7.05;;;3.60;99.90;;;;;;5111991;28;20060;-63
2023/01/28 07:18:15;;;;;;;7.03;6.43;;;3.60;99.90;;;;;;5112266;28;20031;-63
2023/01/28 07:20:41;;;;;;;6.93;6.22;;;3.60;99.90;;;;;;5111518;28;20028;-63
2023/01/28 07:23:07;;;;;;;7.65;6.90;;;3.60;99.90;;;;;;5112465;28;20035;-63
2023/01/28 07:25:33;;;;;;;9.05;8.10;;;3.60;99.90;;;;;;5115944;28;20563;-63
2023/01/28 07:27:59;;;;;;;8.52;7.72;;;3.60;99.90;;;;;;5115859;28;20114;-63
2023/01/28 07:30:24;;;;;;;8.98;8.07;;;3.60;99.90;;;;;;5115836;28;20043;-63
2023/01/28 07:32:55;;;;;;;8.48;7.57;;;3.50;99.90;;;;;;5115978;28;20058;-63
2023/01/28 07:35:21;;;;;;;9.45;7.40;;;3.60;99.90;;;;;;5115765;28;20012;-63
2023/01/28 07:37:58;;;;;;;9.25;8.10;;;3.60;99.90;;;;;;5115960;28;20035;-63
2023/01/28 07:40:25;;;;;;;11.10;9.35;;;3.60;99.90;;;;;;5115750;28;20046;-63
2023/01/28 07:42:52;;;;;;;13.13;9.35;;;3.70;99.90;;;;;;5115645;28;20400;-63
2023/01/28 07:45:18;;;;;;;11.18;9.13;;;3.60;99.90;;;;;;5115580;28;20024;-63
2023/01/28 07:47:43;;;;;;;12.23;9.35;;;3.70;99.90;;;;;;5115514;28;20464;-63
2023/01/28 07:50:10;;;;;;;10.15;9.05;;;3.70;99.90;;;;;;5097190;28;20023;-63
2023/01/28 07:52:43;;;;;;;12.48;10.02;;;3.70;99.90;;;;;;5115551;28;20064;-63
2023/01/28 07:55:11;;;;;;;9.70;8.70;;;3.70;99.90;;;;;;5115502;28;20027;-63
2023/01/28 07:57:37;;;;;;;10.52;8.82;;;3.60;99.90;;;;;;5115130;28;20480;-63
2023/01/28 08:00:03;;;;;;;11.10;9.93;;;3.70;99.90;;;;;;5115186;28;20069;-63
2023/01/28 08:02:29;;;;;;;9.05;8.15;;;3.70;99.90;;;;;;5115331;28;20122;-63
2023/01/28 08:04:58;;;;;;;8.63;7.72;;;3.70;99.90;;;;;;5115498;28;20434;-63
2023/01/28 08:07:24;;;;;;;11.52;10.18;;;3.70;99.90;;;;;;5114977;28;20484;-63
2023/01/28 08:09:50;;;;;;;9.43;8.52;;;3.70;99.90;;;;;;5114981;28;20052;-63
2023/01/28 08:12:16;;;;;;;9.32;8.40;;;3.70;99.90;;;;;;5114831;28;20090;-63
2023/01/28 08:14:42;;;;;;;9.32;8.43;;;3.80;99.90;;;;;;5115058;28;20023;-63
2023/01/28 08:17:08;;;;;;;12.10;11.00;;;3.80;99.90;;;;;;5115090;28;20024;-64
2023/01/28 08:19:33;;;;;;;10.70;9.60;;;3.80;99.90;;;;;;5114827;28;20504;-63
2023/01/28 08:21:59;;;;;;;10.63;9.50;;;3.80;99.90;;;;;;5114702;28;20484;-63
2023/01/28 08:24:25;;;;;;;11.55;10.00;;;3.80;99.90;;;;;;5114919;28;20032;-63
2023/01/28 08:26:50;;;;;;;11.15;10.00;;;3.90;99.90;;;;;;5114828;28;20019;-63
2023/01/28 08:29:16;;;;;;;10.38;9.25;;;3.80;99.90;;;;;;5114720;28;20032;-63
2023/01/28 08:31:42;;;;;;;10.45;9.40;;;3.90;99.90;;;;;;5114727;28;20047;-63
2023/01/28 08:34:08;;;;;;;9.48;8.50;;;3.90;99.90;;;;;;5114963;28;20062;-63
2023/01/28 08:36:33;;;;;;;10.25;8.93;;;3.90;99.90;;;;;;5113812;28;20051;-63
2023/01/28 08:38:59;;;;;;;9.95;8.95;;;3.90;99.90;;;;;;5114753;28;20028;-63
2023/01/28 08:41:25;;;;;;;11.05;9.27;;;3.90;99.90;;;;;;5114448;28;20464;-63
2023/01/28 08:43:50;;;;;;;10.63;9.52;;;4.00;99.90;;;;;;5114598;28;20081;-63
2023/01/28 08:46:16;;;;;;;10.90;9.55;;;3.90;99.90;;;;;;5114029;28;20079;-63
2023/01/28 08:48:42;;;;;;;11.48;10.27;;;4.00;99.90;;;;;;5095785;28;20031;-63
2023/01/28 08:51:08;;;;;;;13.18;11.77;;;3.90;99.90;;;;;;5114476;28;20137;-63
2023/01/28 08:53:33;;;;;;;12.98;11.68;;;4.00;99.90;;;;;;5114367;28;20042;-63
2023/01/28 08:55:59;;;;;;;13.63;11.80;;;4.00;99.90;;;;;;5114002;28;20498;-63
2023/01/28 08:58:25;;;;;;;11.13;9.95;;;4.00;99.90;;;;;;5114403;28;20555;-63
2023/01/28 09:00:51;;;;;;;11.23;9.93;;;4.00;99.90;;;;;;5114258;28;20016;-64
2023/01/28 09:03:17;;;;;;;11.43;10.18;;;4.10;99.90;;;;;;5113758;28;20496;-63
2023/01/28 09:05:43;;;;;;;12.90;10.52;;;4.00;99.90;;;;;;5114020;28;20321;-63
2023/01/28 09:08:13;;;;;;;11.48;10.38;;;4.10;99.90;;;;;;5113702;28;20027;-63
2023/01/28 09:10:40;;;;;;;14.60;12.95;;;4.10;99.90;;;;;;5113842;28;20446;-63
2023/01/28 09:13:14;;;;;;;13.27;11.85;;;4.10;99.90;;;;;;5113900;28;20502;-63
2023/01/28 09:15:40;;;;;;;13.30;11.90;;;4.10;99.90;;;;;;5113978;28;20019;-63
2023/01/28 09:18:06;;;;;;;14.70;12.27;;;4.10;99.90;;;;;;5113781;28;20027;-63
2023/01/28 09:20:32;;;;;;;12.27;11.07;;;4.10;99.90;;;;;;5114109;28;20028;-63
2023/01/28 09:22:59;;;;;;;12.75;11.45;;;4.10;99.90;;;;;;5113594;28;20085;-63
2023/01/28 09:25:25;;;;;;;12.60;11.30;;;4.10;99.90;;;;;;5113220;28;20023;-63
2023/01/28 09:27:51;;;;;;;13.93;11.80;;;4.10;99.90;;;;;;5113690;28;20084;-63
2023/01/28 09:30:17;;;;;;;15.05;12.40;;;4.10;99.90;;;;;;5113540;28;20526;-63
2023/01/28 09:32:42;;;;;;;13.48;11.82;;;4.20;99.90;;;;;;5113289;28;20020;-63
2023/01/28 09:35:09;;;;;;;15.95;13.05;;;4.20;99.90;;;;;;5113421;28;20518;-63
2023/01/28 09:37:34;;;;;;;13.68;12.20;;;4.30;99.90;;;;;;5113440;28;20061;-63
2023/01/28 09:40:01;;;;;;;15.55;12.45;;;4.30;99.90;;;;;;5112917;28;20506;-63
2023/01/28 09:43:04;;;;;;;12.13;10.93;;;4.40;99.90;;;;;;5113518;28;20077;-63
2023/01/28 09:45:36;;;;;;;13.23;11.82;;;4.40;99.90;;;;;;5112989;28;20031;-63
2023/01/28 09:48:04;;;;;;;13.02;11.60;;;4.40;99.90;;;;;;5113287;28;20112;-63
2023/01/28 09:50:42;;;;;;;12.45;11.18;;;4.50;99.90;;;;;;5113201;28;20094;-63
2023/01/28 09:53:16;;;;;;;13.70;12.30;;;4.40;99.90;;;;;;5113262;28;20032;-63
2023/01/28 09:56:01;;;;;;;13.00;11.68;;;4.50;99.90;;;;;;5113089;28;20441;-63
2023/01/28 09:58:27;;;;;;;12.57;11.30;;;4.40;99.90;;;;;;5113070;28;20076;-63
2023/01/28 10:01:07;;;;;;;13.80;12.35;;;4.40;99.90;;;;;;5112887;28;20059;-63
2023/01/28 10:04:09;;;;;;;14.10;12.60;;;4.40;99.90;;;;;;5112846;28;20043;-63
2023/01/28 10:07:02;;;;;;;14.98;13.48;;;4.40;99.90;;;;;;5112662;28;20126;-63
2023/01/28 10:09:28;;;;;;;18.63;14.40;;;4.40;99.90;;;;;;5112270;28;20058;-63
2023/01/28 10:12:12;;;;;;;17.13;14.15;;;4.50;99.90;;;;;;5112870;28;20413;-64
2023/01/28 10:14:49;;;;;;;14.90;13.40;;;4.40;99.90;;;;;;5112748;28;20396;-63
2023/01/28 10:17:24;;;;;;;14.68;13.13;;;4.50;99.90;;;;;;5112922;28;20023;-63
2023/01/28 10:20:02;;;;;;;14.30;12.60;;;4.50;99.90;;;;;;5112685;28;20055;-63
2023/01/28 10:23:04;;;;;;;16.00;13.75;;;4.50;99.90;;;;;;5113090;28;20028;-63
2023/01/28 10:25:31;;;;;;;15.18;13.52;;;4.50;99.90;;;;;;5029714;28;20041;-63
2023/01/28 10:27:59;;;;;;;15.75;14.05;;;4.50;99.90;;;;;;5030069;28;20030;-63
2023/01/28 10:30:28;;;;;;;12.95;11.57;;;4.40;99.90;;;;;;5030042;28;20112;-63
2023/01/28 10:33:16;;;;;;;14.00;12.52;;;4.50;99.90;;;;;;5030194;28;20077;-63
2023/01/28 10:35:42;;;;;;;18.45;13.85;;;4.50;99.90;;;;;;5029847;28;20045;-63
2023/01/28 10:38:14;;;;;;;16.73;12.68;;;4.40;99.90;;;;;;5029501;28;20026;-63
2023/01/28 10:40:46;;;;;;;20.33;14.20;;;4.50;99.90;;;;;;5029710;28;20155;-63
2023/01/28 10:43:14;;;;;;;18.95;12.30;;;4.50;99.90;;;;;;5029534;28;20077;-63
2023/01/28 10:45:51;;;;;;;14.30;12.90;;;4.50;99.90;;;;;;5030075;28;20029;-63
2023/01/28 10:48:29;;;;;;;13.50;12.10;;;4.50;99.90;;;;;;5048872;28;20548;-63
2023/01/28 10:51:00;;;;;;;15.32;13.30;;;4.50;99.90;;;;;;5049758;28;20040;-63
2023/01/28 10:53:40;;;;;;;14.27;12.75;;;4.60;99.90;;;;;;5049271;28;20398;-64
2023/01/28 10:56:24;;;;;;;13.93;12.48;;;4.50;99.90;;;;;;5049510;28;20119;-63
2023/01/28 10:59:05;;;;;;;13.88;12.43;;;4.60;99.90;;;;;;5050904;28;20039;-63
2023/01/28 11:02:03;;;;;;;14.00;12.50;;;4.60;99.90;;;;;;5070435;28;20040;-63
2023/01/28 11:04:29;;;;;;;13.60;12.13;;;4.70;99.90;;;;;;5053586;28;20045;-63
2023/01/28 11:06:57;;;;;;;15.23;13.63;;;4.70;99.90;;;;;;5057178;28;20025;-63
2023/01/28 11:09:26;;;;;;;19.77;14.80;;;4.80;99.90;;;;;;5073540;28;20049;-63
2023/01/28 11:11:52;;;;;;;15.25;13.48;;;4.90;99.90;;;;;;5073655;28;20091;-63
2023/01/28 11:14:23;;;;;;;20.30;15.15;;;4.90;99.90;;;;;;5056625;28;20033;-63
2023/01/28 11:16:52;;;;;;;15.32;13.23;;;5.00;99.90;;;;;;5073847;28;20112;-63
2023/01/28 11:19:19;;;;;;;15.55;13.55;;;5.20;99.90;;;;;;5073413;28;20116;-64
2023/01/28 11:21:53;;;;;;;15.88;13.68;;;5.40;99.90;;;;;;5072561;28;20037;-63
2023/01/28 11:24:22;;;;;;;16.27;14.35;;;5.60;99.90;;;;;;5073256;28;20115;-63
2023/01/28 11:26:52;;;;;;;15.65;13.30;;;5.80;99.90;;;;;;5073159;28;20032;-63
2023/01/28 11:29:31;;;;;;;14.63;13.13;;;5.60;99.90;;;;;;5073535;28;20635;-63
2023/01/28 11:31:58;;;;;;;13.48;12.05;;;5.50;99.90;;;;;;5072880;28;20032;-63
2023/01/28 11:34:28;;;;;;;14.75;12.68;;;5.80;99.90;;;;;;5073074;28;20041;-64
2023/01/28 11:37:17;;;;;;;14.55;13.02;;;5.90;99.90;;;;;;5072584;28;20086;-63
2023/01/28 11:39:43;;;;;;;15.63;12.35;;;6.20;99.90;;;;;;5072944;28;20035;-63
2023/01/28 11:42:21;;;;;;;12.45;11.10;;;5.90;99.90;;;;;;5111431;28;20127;-63
2023/01/28 11:44:47;;;;;;;13.52;12.13;;;6.10;99.90;;;;;;5116038;28;20024;-63
2023/01/28 11:47:36;;;;;;;12.07;10.88;;;6.40;99.90;;;;;;5115540;28;20028;-63
2023/01/28 11:50:20;;;;;;;12.27;11.07;;;6.50;99.90;;;;;;5115252;28;20388;-63
2023/01/28 11:52:58;;;;;;;11.27;10.18;;;6.30;99.90;;;;;;5115540;28;20093;-63
2023/01/28 11:56:18;;;;;;;10.50;9.50;;;6.30;99.90;;;;;;5115282;28;20020;-63
2023/01/28 11:58:52;;;;;;;12.98;10.90;;;6.00;99.90;;;;;;5032747;28;20038;-63
2023/01/28 12:01:24;;;;;;;11.02;9.93;;;6.30;99.90;;;;;;5032518;28;20107;-63
2023/01/28 12:04:09;;;;;;;10.93;9.82;;;6.10;99.90;;;;;;5032566;28;20053;-63
2023/01/28 12:07:04;;;;;;;10.70;9.70;;;6.30;99.90;;;;;;5032464;28;20033;-63
2023/01/28 12:09:43;;;;;;;11.50;9.98;;;6.50;99.90;;;;;;5031946;28;20041;-63
2023/01/28 12:12:15;;;;;;;9.98;9.07;;;6.70;99.90;;;;;;5031865;28;20104;-63
2023/01/28 12:15:11;;;;;;;11.18;9.60;;;6.90;99.90;;;;;;5032294;28;20056;-63
2023/01/28 12:18:01;;;;;;;13.10;11.05;;;6.90;99.90;;;;;;5032386;28;20037;-63
2023/01/28 12:20:27;;;;;;;9.35;8.45;;;7.00;99.90;;;;;;5032095;28;20184;-63
2023/01/28 12:23:19;;;;;;;10.25;9.23;;;6.50;99.90;;;;;;5032016;28;20077;-63
2023/01/28 12:25:56;;;;;;;9.10;8.20;;;6.80;99.90;;;;;;5032106;28;20033;-63
2023/01/28 12:28:34;;;;;;;9.50;8.45;;;7.20;99.90;;;;;;5041111;28;20054;-63
2023/01/28 12:31:02;;;;;;;9.95;8.65;;;7.30;99.90;;;;;;5094207;28;20055;-63
2023/01/28 12:33:44;;;;;;;8.63;7.78;;;7.50;99.90;;;;;;5093948;28;20691;-63
2023/01/28 12:36:18;;;;;;;8.35;7.55;;;7.60;99.90;;;;;;5094272;28;20020;-63
2023/01/28 12:38:53;;;;;;;9.65;8.65;;;7.70;99.90;;;;;;5094202;28;20464;-63
2023/01/28 12:41:33;;;;;;;8.75;7.85;;;6.90;99.90;;;;;;5094309;28;20055;-63
2023/01/28 12:44:13;;;;;;;7.78;7.07;;;6.60;99.90;;;;;;5094196;28;20130;-63
2023/01/28 12:46:54;;;;;;;8.77;7.70;;;6.80;99.90;;;;;;5093900;28;20028;-64
2023/01/28 12:49:52;;;;;;;8.80;7.90;;;6.60;99.90;;;;;;5093357;28;20032;-63
2023/01/28 12:52:23;;;;;;;10.35;8.60;;;6.50;99.90;;;;;;5093912;28;20028;-63
2023/01/28 12:55:00;;;;;;;9.55;7.25;;;6.40;99.90;;;;;;5075513;28;20111;-63
2023/01/28 12:57:30;;;;;;;10.27;7.65;;;6.30;99.90;;;;;;5093464;28;20104;-63
2023/01/28 13:00:17;;;;;;;10.98;8.73;;;6.40;99.90;;;;;;5094196;28;20484;-63
2023/01/28 13:02:50;;;;;;;11.68;8.90;;;6.30;99.90;;;;;;5092710;28;20082;-63
2023/01/28 13:05:30;;;;;;;18.50;10.60;;;6.20;99.90;;;;;;5093775;28;20017;-63
2023/01/28 13:08:04;;;;;;;10.18;7.95;;;6.30;99.90;;;;;;5093467;28;20490;-63
2023/01/28 13:10:40;;;;;;;9.70;8.70;;;6.00;99.90;;;;;;5105666;28;20472;-63
2023/01/28 13:13:11;;;;;;;8.40;7.60;;;6.20;99.90;;;;;;5114031;28;20530;-63
2023/01/28 13:15:39;;;;;;;9.18;7.25;;;5.90;99.90;;;;;;5113976;28;20027;-63
2023/01/28 13:18:05;;;;;;;16.20;9.27;;;5.90;99.90;;;;;;5113860;28;20077;-63
2023/01/28 13:20:47;;;;;;;7.90;7.00;;;6.00;99.90;;;;;;5113871;28;20027;-63
2023/01/28 13:23:34;;;;;;;7.68;6.97;;;6.10;99.90;;;;;;5113643;28;20040;-63
2023/01/28 13:26:18;;;;;;;7.53;6.80;;;6.20;99.90;;;;;;5114050;28;20024;-63
2023/01/28 13:28:51;;;;;;;10.05;7.80;;;6.10;99.90;;;;;;5113682;28;20417;-63
2023/01/28 13:31:20;;;;;;;13.43;9.63;;;6.30;99.90;;;;;;5113185;28;20106;-63
2023/01/28 13:33:59;;;;;;;10.18;9.02;;;6.30;99.90;;;;;;5113538;28;20051;-63
2023/01/28 13:36:35;;;;;;;7.57;6.88;;;6.20;99.90;;;;;;5113859;28;20026;-63